createdAt,value
2022-11-28T00:01:25.235Z,13.52
2022-11-28T00:03:52.388Z,11.60
2022-11-28T00:06:19.866Z,19.20
2022-11-28T00:08:47.544Z,11.77
2022-11-28T00:11:15.938Z,15.25
2022-11-28T00:13:43.534Z,12.45
2022-11-28T00:16:16.188Z,14.93
2022-11-28T00:18:43.728Z,11.73
2022-11-28T00:21:13.189Z,11.80
2022-11-28T00:23:41.166Z,14.10
2022-11-28T00:26:14.185Z,13.05
2022-11-28T00:28:41.331Z,15.20
2022-11-28T00:31:13.812Z,13.88
2022-11-28T00:33:41.423Z,16.23
2022-11-28T00:36:08.915Z,12.40
2022-11-28T00:38:35.948Z,14.65
2022-11-28T00:41:18.067Z,15.40
2022-11-28T00:43:47.064Z,14.23
2022-11-28T00:46:15.492Z,14.32
2022-11-28T00:48:42.631Z,13.63
2022-11-28T00:51:14.315Z,17.00
2022-11-28T00:53:42.690Z,13.43
2022-11-28T00:56:11.960Z,15.75
2022-11-28T00:58:39.967Z,15.02
2022-11-28T01:01:37.981Z,18.15
2022-11-28T01:04:08.323Z,17.30
2022-11-28T01:06:44.465Z,15.05
2022-11-28T01:09:17.565Z,14.40
2022-11-28T01:11:46.189Z,20.65
2022-11-28T01:14:13.698Z,13.40
2022-11-28T01:16:40.807Z,16.70
2022-11-28T01:19:08.062Z,14.70
2022-11-28T01:21:36.056Z,12.68
2022-11-28T01:24:03.262Z,16.58
2022-11-28T01:26:30.673Z,11.35
2022-11-28T01:28:59.725Z,12.88
2022-11-28T01:31:28.905Z,15.00
2022-11-28T01:33:56.882Z,17.88
2022-11-28T01:36:24.456Z,15.93
2022-11-28T01:38:52.426Z,16.48
2022-11-28T01:41:24.807Z,14.40
2022-11-28T01:44:08.681Z,11.98
2022-11-28T01:46:36.873Z,13.82
2022-11-28T01:49:22.264Z,13.77
2022-11-28T01:51:56.104Z,12.68
2022-11-28T01:54:25.411Z,15.20
2022-11-28T01:56:58.202Z,17.13
2022-11-28T01:59:28.232Z,14.38
2022-11-28T02:01:55.436Z,15.23
2022-11-28T02:04:25.901Z,16.15
2022-11-28T02:06:52.951Z,15.13
2022-11-28T02:09:20.159Z,14.65
2022-11-28T02:12:08.011Z,16.42
2022-11-28T02:14:46.207Z,16.38
2022-11-28T02:17:15.934Z,12.27
2022-11-28T02:20:01.344Z,18.73
2022-11-28T02:22:40.974Z,15.40
2022-11-28T02:25:52.699Z,15.18
2022-11-28T02:28:30.033Z,16.63
2022-11-28T02:31:33.358Z,11.27
2022-11-28T02:34:08.327Z,16.38
2022-11-28T02:36:50.144Z,15.27
2022-11-28T02:39:25.302Z,18.23
2022-11-28T02:42:15.072Z,14.60
2022-11-28T02:45:27.465Z,15.68
2022-11-28T02:48:03.595Z,16.00
2022-11-28T02:50:38.428Z,17.90
2022-11-28T02:53:20.001Z,13.32
2022-11-28T02:55:47.619Z,14.45
2022-11-28T02:58:14.696Z,12.80
2022-11-28T03:00:46.897Z,16.00
2022-11-28T03:03:27.120Z,15.85
2022-11-28T03:06:24.339Z,11.88
2022-11-28T03:09:19.619Z,13.25
2022-11-28T03:11:58.356Z,14.73
2022-11-28T03:14:36.705Z,20.25
2022-11-28T03:17:03.627Z,18.42
2022-11-28T03:19:39.093Z,14.15
2022-11-28T03:22:24.899Z,14.02
2022-11-28T03:25:06.105Z,15.50
2022-11-28T03:27:38.788Z,15.88
2022-11-28T03:30:12.155Z,17.33
2022-11-28T03:32:40.285Z,20.75
2022-11-28T03:35:14.063Z,14.93
2022-11-28T03:37:47.747Z,20.23
2022-11-28T03:40:26.900Z,19.42
2022-11-28T03:43:01.422Z,18.83
2022-11-28T03:45:32.506Z,15.65
2022-11-28T03:48:05.537Z,21.33
2022-11-28T03:50:47.538Z,16.98
2022-11-28T03:53:26.007Z,14.10
2022-11-28T03:56:04.265Z,15.15
2022-11-28T03:58:36.453Z,15.98
2022-11-28T04:01:27.245Z,17.42
2022-11-28T04:04:03.200Z,17.90
2022-11-28T04:06:37.722Z,14.00
2022-11-28T04:09:14.533Z,17.15
2022-11-28T04:11:51.648Z,19.15
2022-11-28T04:14:29.441Z,18.17
2022-11-28T04:17:17.361Z,20.20
2022-11-28T04:19:51.689Z,17.15
2022-11-28T04:22:30.841Z,13.50
2022-11-28T04:25:02.441Z,22.58
2022-11-28T04:27:35.417Z,19.50
2022-11-28T04:30:04.736Z,19.42
2022-11-28T04:32:36.162Z,18.08
2022-11-28T04:35:26.132Z,18.50
2022-11-28T04:37:55.815Z,21.25
2022-11-28T04:40:24.741Z,17.45
2022-11-28T04:42:56.492Z,17.83
2022-11-28T04:45:30.462Z,20.92
2022-11-28T04:47:58.029Z,18.35
2022-11-28T04:50:31.211Z,18.13
2022-11-28T04:53:10.117Z,21.65
2022-11-28T04:56:01.547Z,18.92
2022-11-28T04:58:35.446Z,17.83
2022-11-28T05:01:05.756Z,19.00
2022-11-28T05:03:32.881Z,17.25
2022-11-28T05:06:01.453Z,15.00
2022-11-28T05:08:28.748Z,21.70
2022-11-28T05:10:55.878Z,16.98
2022-11-28T05:13:22.920Z,20.33
2022-11-28T05:15:49.929Z,17.58
2022-11-28T05:18:16.932Z,16.65
2022-11-28T05:20:44.613Z,19.17
2022-11-28T05:23:11.642Z,17.23
2022-11-28T05:25:39.968Z,19.42
2022-11-28T05:28:07.990Z,17.80
2022-11-28T05:30:35.063Z,17.73
2022-11-28T05:33:02.698Z,20.05
2022-11-28T05:35:29.754Z,17.00
2022-11-28T05:37:56.827Z,21.10
2022-11-28T05:40:23.876Z,19.30
2022-11-28T05:42:50.869Z,16.65
2022-11-28T05:45:17.881Z,15.95
2022-11-28T05:47:44.858Z,20.70
2022-11-28T05:50:11.932Z,15.68
2022-11-28T05:52:38.937Z,15.95
2022-11-28T05:55:06.541Z,19.42
2022-11-28T05:57:33.598Z,15.90
2022-11-28T06:00:00.634Z,17.08
2022-11-28T06:02:27.716Z,15.38
2022-11-28T06:04:54.790Z,17.92
2022-11-28T06:07:21.934Z,17.08
2022-11-28T06:09:48.935Z,17.83
2022-11-28T06:12:15.929Z,16.88
2022-11-28T06:14:42.892Z,20.88
2022-11-28T06:17:09.958Z,20.80
2022-11-28T06:19:37.173Z,19.63
2022-11-28T06:22:04.214Z,17.50
2022-11-28T06:24:31.176Z,19.33
2022-11-28T06:26:58.173Z,17.55
2022-11-28T06:29:25.179Z,18.85
2022-11-28T06:31:52.235Z,19.55
2022-11-28T06:34:19.252Z,17.98
2022-11-28T06:36:46.272Z,20.17
2022-11-28T06:39:15.444Z,25.13
2022-11-28T06:41:43.580Z,19.17
2022-11-28T06:44:15.008Z,22.00
2022-11-28T06:46:42.818Z,29.38
2022-11-28T06:49:13.114Z,19.30
2022-11-28T06:51:41.643Z,22.67
2022-11-28T06:54:09.147Z,19.65
2022-11-28T06:56:36.165Z,20.30
2022-11-28T06:59:03.251Z,23.10
2022-11-28T07:01:32.237Z,15.80
2022-11-28T07:03:59.316Z,18.55
2022-11-28T07:06:27.146Z,18.55
2022-11-28T07:08:57.531Z,17.83
2022-11-28T07:11:30.540Z,27.77
2022-11-28T07:13:58.689Z,20.17
2022-11-28T07:16:27.898Z,18.63
2022-11-28T07:18:56.471Z,18.90
2022-11-28T07:21:24.012Z,19.13
2022-11-28T07:23:51.507Z,20.27
2022-11-28T07:26:22.926Z,24.17
2022-11-28T07:28:51.155Z,22.70
2022-11-28T07:31:20.937Z,25.25
2022-11-28T07:33:50.429Z,19.15
2022-11-28T07:36:20.968Z,19.38
2022-11-28T07:38:49.910Z,19.33
2022-11-28T07:41:17.589Z,19.70
2022-11-28T07:43:46.442Z,19.33
2022-11-28T07:46:17.305Z,19.27
2022-11-28T07:48:45.013Z,18.40
2022-11-28T07:51:15.015Z,18.58
2022-11-28T07:53:42.911Z,17.33
2022-11-28T07:56:14.924Z,19.17
2022-11-28T07:58:43.574Z,17.13
2022-11-28T08:01:21.556Z,19.95
2022-11-28T08:03:48.896Z,57.47
2022-11-28T08:06:17.468Z,22.33
2022-11-28T08:08:46.950Z,25.15
2022-11-28T08:11:15.611Z,20.30
2022-11-28T08:13:43.030Z,20.75
2022-11-28T08:16:14.359Z,20.25
2022-11-28T08:18:41.536Z,22.52
2022-11-28T08:21:10.474Z,39.33
2022-11-28T08:23:38.518Z,21.30
2022-11-28T08:26:08.438Z,17.55
2022-11-28T08:28:35.892Z,19.75
2022-11-28T08:31:10.786Z,19.75
2022-11-28T08:33:38.186Z,26.63
2022-11-28T08:36:06.590Z,19.48
2022-11-28T08:38:33.661Z,20.98
2022-11-28T08:41:02.255Z,17.75
2022-11-28T08:43:29.415Z,19.42
2022-11-28T08:45:56.846Z,21.60
2022-11-28T08:48:24.033Z,22.27
2022-11-28T08:50:51.464Z,19.17
2022-11-28T08:53:18.814Z,19.88
2022-11-28T08:55:45.834Z,26.25
2022-11-28T08:58:13.343Z,25.20
2022-11-28T09:00:42.237Z,28.38
2022-11-28T09:03:14.703Z,18.92
2022-11-28T09:05:45.257Z,14.82
2022-11-28T09:08:13.721Z,17.40
2022-11-28T09:10:43.727Z,20.30
2022-11-28T09:13:12.979Z,19.52
2022-11-28T09:15:45.033Z,23.45
2022-11-28T09:18:13.909Z,21.33
2022-11-28T09:20:41.997Z,21.60
2022-11-28T09:23:09.805Z,25.83
2022-11-28T09:25:39.813Z,20.20
2022-11-28T09:28:07.184Z,18.15
2022-11-28T09:30:34.510Z,22.92
2022-11-28T09:33:01.673Z,16.15
2022-11-28T09:35:28.837Z,23.25
2022-11-28T09:37:57.441Z,20.30
2022-11-28T09:40:40.345Z,18.08
2022-11-28T09:43:35.721Z,17.70
2022-11-28T09:46:08.215Z,18.17
2022-11-28T09:51:14.473Z,18.98
2022-11-28T09:54:00.316Z,17.02
2022-11-28T09:56:27.505Z,22.35
2022-11-28T09:59:04.322Z,17.95
2022-11-28T10:01:44.267Z,19.70
2022-11-28T10:04:31.622Z,16.77
2022-11-28T10:07:01.572Z,24.70
2022-11-28T10:09:33.860Z,19.13
2022-11-28T10:12:15.881Z,16.45
2022-11-28T10:15:08.674Z,19.58
2022-11-28T10:17:57.307Z,19.35
2022-11-28T10:20:28.582Z,20.23
2022-11-28T10:22:59.061Z,18.65
2022-11-28T10:25:37.546Z,21.73
2022-11-28T10:28:15.269Z,21.02
2022-11-28T10:30:48.387Z,18.55
2022-11-28T10:33:29.542Z,21.08
2022-11-28T10:36:01.883Z,17.40
2022-11-28T10:38:32.180Z,20.67
2022-11-28T10:41:20.549Z,20.92
2022-11-28T10:43:59.366Z,17.48
2022-11-28T10:46:53.412Z,19.08
2022-11-28T10:49:46.578Z,27.35
2022-11-28T10:52:16.665Z,22.50
2022-11-28T10:54:52.430Z,20.02
2022-11-28T10:58:01.150Z,18.15
2022-11-28T11:00:28.213Z,18.08
2022-11-28T11:02:57.084Z,19.42
2022-11-28T11:05:25.760Z,19.13
2022-11-28T11:07:56.449Z,26.67
2022-11-28T11:10:37.246Z,17.60
2022-11-28T11:13:25.876Z,21.27
2022-11-28T11:16:03.817Z,19.95
2022-11-28T11:18:34.592Z,21.73
2022-11-28T11:21:24.480Z,23.40
2022-11-28T11:24:18.148Z,20.35
2022-11-28T11:26:48.664Z,17.08
2022-11-28T11:29:27.866Z,17.77
2022-11-28T11:31:55.611Z,23.83
2022-11-28T11:34:23.739Z,21.05
2022-11-28T11:36:51.587Z,23.60
2022-11-28T11:39:18.830Z,34.17
2022-11-28T11:41:49.317Z,20.33
2022-11-28T11:44:20.486Z,22.08
2022-11-28T11:46:52.309Z,21.10
2022-11-28T11:49:29.787Z,20.63
2022-11-28T11:51:59.199Z,28.88
2022-11-28T11:54:26.430Z,20.92
2022-11-28T11:57:11.234Z,28.50
2022-11-28T12:00:14.637Z,23.98
2022-11-28T12:06:14.127Z,19.73
2022-11-28T12:09:26.969Z,22.75
2022-11-28T12:12:01.517Z,22.77
2022-11-28T12:14:32.773Z,20.02
2022-11-28T12:17:57.221Z,23.45
2022-11-28T12:23:07.019Z,28.48
2022-11-28T12:25:43.512Z,19.58
2022-11-28T12:28:41.863Z,19.63
2022-11-28T12:31:16.779Z,25.40
2022-11-28T12:33:55.751Z,22.17
2022-11-28T12:36:49.424Z,20.98
2022-11-28T12:39:23.288Z,23.85
2022-11-28T12:42:12.404Z,17.73
2022-11-28T12:45:08.619Z,24.23
2022-11-28T12:47:50.553Z,25.67
2022-11-28T12:50:36.804Z,18.17
2022-11-28T12:53:03.745Z,21.85
2022-11-28T12:55:46.721Z,23.50
2022-11-28T12:58:23.994Z,28.25
2022-11-28T13:01:32.962Z,20.95
2022-11-28T13:04:25.289Z,29.85
2022-11-28T13:07:17.073Z,24.15
2022-11-28T13:10:03.604Z,21.35
2022-11-28T13:13:13.349Z,24.15
2022-11-28T13:16:04.842Z,24.13
2022-11-28T13:18:52.539Z,21.50
2022-11-28T13:21:32.261Z,21.90
2022-11-28T13:24:11.490Z,25.48
2022-11-28T13:27:07.983Z,25.00
2022-11-28T13:29:43.615Z,28.75
2022-11-28T13:32:28.691Z,21.40
2022-11-28T13:34:56.246Z,24.80
2022-11-28T13:40:42.133Z,23.38
2022-11-28T13:43:34.282Z,21.30
2022-11-28T13:46:01.870Z,30.43
2022-11-28T13:49:13.684Z,25.23
2022-11-28T13:51:31.966Z,21.83
2022-11-28T13:54:31.935Z,26.00
2022-11-28T13:57:29.023Z,23.23
2022-11-28T14:00:01.655Z,23.90
2022-11-28T14:02:39.392Z,21.33
2022-11-28T14:05:26.356Z,23.35
2022-11-28T14:07:56.029Z,25.48
2022-11-28T14:10:45.935Z,23.67
2022-11-28T14:13:23.162Z,22.60
2022-11-28T14:16:26.111Z,20.65
2022-11-28T14:18:57.792Z,19.75
2022-11-28T14:21:49.646Z,26.98
2022-11-28T14:24:41.315Z,25.80
2022-11-28T14:27:26.064Z,24.38
2022-11-28T14:29:55.523Z,21.95
2022-11-28T14:32:38.941Z,23.48
2022-11-28T14:35:17.273Z,21.05
2022-11-28T14:37:53.892Z,24.13
2022-11-28T14:41:11.553Z,24.13
2022-11-28T14:43:46.130Z,24.52
2022-11-28T14:46:16.189Z,28.70
2022-11-28T14:48:58.664Z,23.73
2022-11-28T14:51:44.280Z,24.42
2022-11-28T14:54:35.426Z,27.05
2022-11-28T14:57:16.447Z,23.05
2022-11-28T14:59:44.005Z,24.90
2022-11-28T15:02:11.374Z,26.08
2022-11-28T15:04:58.957Z,22.17
2022-11-28T15:07:53.887Z,19.83
2022-11-28T15:10:49.030Z,19.98
2022-11-28T15:13:19.037Z,17.15
2022-11-28T15:15:48.737Z,26.90
2022-11-28T15:18:18.821Z,20.27
2022-11-28T15:20:53.736Z,21.30
2022-11-28T15:23:33.057Z,21.30
2022-11-28T15:26:02.047Z,20.63
2022-11-28T15:28:32.384Z,20.27
2022-11-28T15:31:02.097Z,20.38
2022-11-28T15:33:30.236Z,20.65
2022-11-28T15:36:10.640Z,21.23
2022-11-28T15:38:41.138Z,19.10
2022-11-28T15:41:09.380Z,16.58
2022-11-28T15:43:41.771Z,19.92
2022-11-28T15:46:19.277Z,24.15
2022-11-28T15:48:52.281Z,24.25
2022-11-28T15:51:27.810Z,21.08
2022-11-28T15:53:55.380Z,22.70
2022-11-28T15:56:23.644Z,21.55
2022-11-28T15:58:52.964Z,26.90
2022-11-28T16:01:25.596Z,24.60
2022-11-28T16:03:55.771Z,19.52
2022-11-28T16:06:26.113Z,23.52
2022-11-28T16:08:56.984Z,22.38
2022-11-28T16:11:26.918Z,19.17
2022-11-28T16:13:57.334Z,20.95
2022-11-28T16:16:32.942Z,24.42
2022-11-28T16:19:02.391Z,19.98
2022-11-28T16:21:35.929Z,22.20
2022-11-28T16:24:16.134Z,21.83
2022-11-28T16:26:54.235Z,23.08
2022-11-28T16:29:24.373Z,19.58
2022-11-28T16:31:51.677Z,25.58
2022-11-28T16:34:46.706Z,20.88
2022-11-28T16:37:14.291Z,20.83
2022-11-28T16:39:42.038Z,18.23
2022-11-28T16:42:17.451Z,23.88
2022-11-28T16:44:44.714Z,23.15
2022-11-28T16:47:30.265Z,19.98
2022-11-28T16:50:15.392Z,21.33
2022-11-28T16:52:53.552Z,23.10
2022-11-28T16:55:29.617Z,24.40
2022-11-28T16:58:08.452Z,28.67
2022-11-28T17:00:36.135Z,19.92
2022-11-28T17:03:06.441Z,24.85
2022-11-28T17:05:36.092Z,23.98
2022-11-28T17:08:03.278Z,24.00
2022-11-28T17:10:30.300Z,26.63
2022-11-28T17:12:57.493Z,22.10
2022-11-28T17:15:24.592Z,24.15
2022-11-28T17:17:52.271Z,25.55
2022-11-28T17:20:19.588Z,19.77
2022-11-28T17:22:47.819Z,21.45
2022-11-28T17:25:17.844Z,23.20
2022-11-28T17:27:45.398Z,22.67
2022-11-28T17:30:16.467Z,19.20
2022-11-28T17:32:43.639Z,18.73
2022-11-28T17:35:19.988Z,23.52
2022-11-28T17:37:47.010Z,20.48
2022-11-28T17:40:32.810Z,15.60
2022-11-28T17:43:01.113Z,22.83
2022-11-28T17:45:31.074Z,19.23
2022-11-28T17:47:58.874Z,18.48
2022-11-28T17:50:26.568Z,22.20
2022-11-28T17:52:53.777Z,17.58
2022-11-28T17:55:20.900Z,19.85
2022-11-28T17:57:48.178Z,20.10
2022-11-28T18:00:16.786Z,22.40
2022-11-28T18:02:44.907Z,25.42
2022-11-28T18:05:13.109Z,16.73
2022-11-28T18:07:40.775Z,17.58
2022-11-28T18:10:11.578Z,18.63
2022-11-28T18:12:39.385Z,22.20
2022-11-28T18:15:10.104Z,18.25
2022-11-28T18:17:37.994Z,20.33
2022-11-28T18:20:05.817Z,16.80
2022-11-28T18:22:32.810Z,15.23
2022-11-28T18:25:00.512Z,19.25
2022-11-28T18:27:28.074Z,18.42
2022-11-28T18:29:55.076Z,15.32
2022-11-28T18:32:23.187Z,16.23
2022-11-28T18:34:50.442Z,19.42
2022-11-28T18:37:17.519Z,21.52
2022-11-28T18:39:44.759Z,18.15
2022-11-28T18:42:11.869Z,19.25
2022-11-28T18:44:38.932Z,22.73
2022-11-28T18:47:05.949Z,18.58
2022-11-28T18:49:32.934Z,19.08
2022-11-28T18:51:59.909Z,16.73
2022-11-28T18:54:30.960Z,17.85
2022-11-28T18:56:57.952Z,16.17
2022-11-28T18:59:25.410Z,17.38
2022-11-28T19:01:52.762Z,18.60
2022-11-28T19:04:19.815Z,18.73
2022-11-28T19:06:48.551Z,16.38
2022-11-28T19:09:16.897Z,19.90
2022-11-28T19:11:45.156Z,24.10
2022-11-28T19:14:17.709Z,26.73
2022-11-28T19:16:53.504Z,20.77
2022-11-28T19:19:20.672Z,21.60
2022-11-28T19:21:49.749Z,19.27
2022-11-28T19:24:21.173Z,20.83
2022-11-28T19:26:50.024Z,23.30
2022-11-28T19:29:17.636Z,24.92
2022-11-28T19:31:45.046Z,24.67
2022-11-28T19:34:15.224Z,22.35
2022-11-28T19:36:47.684Z,19.83
2022-11-28T19:39:23.952Z,20.58
2022-11-28T19:41:54.676Z,23.55
2022-11-28T19:44:24.537Z,17.70
2022-11-28T19:46:53.012Z,20.70
2022-11-28T19:49:23.135Z,19.38
2022-11-28T19:51:50.956Z,19.20
2022-11-28T19:54:21.509Z,21.67
2022-11-28T19:56:49.058Z,20.45
2022-11-28T19:59:16.872Z,21.30
2022-11-28T20:01:44.222Z,22.40
2022-11-28T20:04:11.579Z,25.98
2022-11-28T20:06:38.752Z,22.73
2022-11-28T20:09:11.981Z,21.05
2022-11-28T20:11:42.880Z,21.77
2022-11-28T20:14:16.452Z,23.65
2022-11-28T20:16:44.327Z,23.38
2022-11-28T20:19:14.159Z,23.58
2022-11-28T20:21:41.933Z,20.98
2022-11-28T20:24:10.344Z,27.88
2022-11-28T20:26:40.469Z,25.63
2022-11-28T20:29:11.784Z,26.88
2022-11-28T20:31:46.206Z,36.28
2022-11-28T20:34:17.105Z,35.63
2022-11-28T20:36:44.890Z,29.58
2022-11-28T20:39:12.808Z,28.23
2022-11-28T20:41:39.791Z,17.77
2022-11-28T20:44:10.242Z,19.10
2022-11-28T20:46:38.135Z,17.25
2022-11-28T20:49:06.900Z,18.45
2022-11-28T20:51:35.162Z,18.05
2022-11-28T20:54:04.687Z,19.15
2022-11-28T20:56:51.664Z,15.90
2022-11-28T20:59:21.933Z,17.27
2022-11-28T21:01:48.973Z,15.98
2022-11-28T21:04:17.565Z,18.52
2022-11-28T21:06:47.125Z,17.75
2022-11-28T21:09:14.762Z,23.95
2022-11-28T21:11:56.969Z,19.27
2022-11-28T21:14:25.792Z,13.93
2022-11-28T21:16:52.954Z,22.17
2022-11-28T21:19:20.099Z,16.13
2022-11-28T21:21:47.051Z,18.83
2022-11-28T21:24:14.369Z,20.35
2022-11-28T21:26:46.395Z,20.95
2022-11-28T21:29:21.262Z,23.73
2022-11-28T21:31:48.456Z,20.90
2022-11-28T21:34:16.683Z,20.45
2022-11-28T21:36:44.779Z,23.13
2022-11-28T21:39:14.794Z,18.73
2022-11-28T21:41:42.090Z,20.52
2022-11-28T21:44:09.600Z,21.65
2022-11-28T21:46:36.651Z,19.88
2022-11-28T21:49:03.699Z,24.60
2022-11-28T21:51:30.705Z,24.48
2022-11-28T21:53:58.065Z,21.95
2022-11-28T21:56:25.670Z,20.77
2022-11-28T21:58:54.107Z,23.25
2022-11-28T22:01:21.510Z,20.88
2022-11-28T22:03:49.367Z,22.75
2022-11-28T22:06:23.037Z,27.33
2022-11-28T22:08:51.408Z,20.77
2022-11-28T22:11:21.928Z,29.17
2022-11-28T22:13:50.007Z,25.17
2022-11-28T22:16:18.666Z,31.00
2022-11-28T22:18:47.289Z,24.65
2022-11-28T22:21:50.533Z,21.85
2022-11-28T22:24:08.216Z,22.65
2022-11-28T22:26:35.958Z,24.65
2022-11-28T22:29:04.646Z,26.92
2022-11-28T22:31:32.840Z,29.30
2022-11-28T22:34:00.168Z,23.65
2022-11-28T22:36:27.538Z,25.40
2022-11-28T22:38:56.896Z,19.10
2022-11-28T22:41:29.409Z,24.30
2022-11-28T22:44:00.488Z,27.25
2022-11-28T22:46:28.720Z,22.83
2022-11-28T22:48:56.145Z,23.27
2022-11-28T22:51:25.477Z,30.00
2022-11-28T22:53:58.988Z,19.70
2022-11-28T22:56:28.690Z,24.42
2022-11-28T22:58:55.971Z,24.33
2022-11-28T23:01:27.174Z,25.75
2022-11-28T23:03:55.113Z,25.45
2022-11-28T23:06:26.506Z,31.02
2022-11-28T23:08:58.398Z,31.80
2022-11-28T23:11:32.727Z,22.05
2022-11-28T23:14:01.318Z,27.13
2022-11-28T23:16:31.028Z,26.33
2022-11-28T23:19:00.965Z,31.95
2022-11-28T23:21:33.597Z,29.77
2022-11-28T23:24:01.211Z,27.88
2022-11-28T23:26:30.707Z,31.52
2022-11-28T23:29:00.533Z,32.72
2022-11-28T23:31:30.862Z,32.67
2022-11-28T23:34:00.411Z,29.02
2022-11-28T23:36:37.014Z,32.78
2022-11-28T23:39:18.326Z,36.08
2022-11-28T23:41:45.939Z,39.05
2022-11-28T23:44:14.253Z,35.70
2022-11-28T23:46:41.978Z,43.17
2022-11-28T23:49:09.764Z,41.22
2022-11-28T23:51:37.762Z,36.53
2022-11-28T23:54:04.895Z,53.83
2022-11-28T23:56:35.256Z,28.80
2022-11-28T23:59:04.486Z,38.85
